sensor_id;sensor_type;location;lat;lon;timestamp;pressure;altitude;pressure_sealevel;temperature;humidity
77192;BME280;66172;48.526;8.078;2023-04-03T00:01:37;100255.94;;;6.54;69.62
77192;BME280;66172;48.526;8.078;2023-04-03T00:04:04;100250.03;;;6.52;70.02
77192;BME280;66172;48.526;8.078;2023-04-03T00:06:31;100250.97;;;6.43;68.87
77192;BME280;66172;48.526;8.078;2023-04-03T00:08:57;100248.88;;;6.40;67.97
77192;BME280;66172;48.526;8.078;2023-04-03T00:11:23;100256.13;;;6.21;68.20
77192;BME280;66172;48.526;8.078;2023-04-03T00:13:49;100255.75;;;6.09;69.20
77192;BME280;66172;48.526;8.078;2023-04-03T00:16:15;100253.59;;;6.29;68.57
77192;BME280;66172;48.526;8.078;2023-04-03T00:18:41;100260.38;;;6.03;68.87
77192;BME280;66172;48.526;8.078;2023-04-03T00:21:09;100262.34;;;5.97;69.40
77192;BME280;66172;48.526;8.078;2023-04-03T00:23:35;100263.44;;;5.96;69.87
77192;BME280;66172;48.526;8.078;2023-04-03T00:26:01;100267.00;;;6.16;68.67
77192;BME280;66172;48.526;8.078;2023-04-03T00:28:27;100272.41;;;6.34;67.94
77192;BME280;66172;48.526;8.078;2023-04-03T00:30:53;100270.28;;;6.31;69.14
77192;BME280;66172;48.526;8.078;2023-04-03T00:33:19;100268.28;;;6.42;68.18
77192;BME280;66172;48.526;8.078;2023-04-03T00:35:50;100261.88;;;6.14;68.34
77192;BME280;66172;48.526;8.078;2023-04-03T00:38:17;100267.59;;;5.84;69.58
77192;BME280;66172;48.526;8.078;2023-04-03T00:40:45;100269.75;;;5.87;70.08
77192;BME280;66172;48.526;8.078;2023-04-03T00:43:23;100267.41;;;6.04;69.24
77192;BME280;66172;48.526;8.078;2023-04-03T00:45:52;100258.28;;;6.00;68.98
77192;BME280;66172;48.526;8.078;2023-04-03T00:48:34;100261.06;;;6.14;68.50
77192;BME280;66172;48.526;8.078;2023-04-03T00:51:04;100263.91;;;6.03;69.06
77192;BME280;66172;48.526;8.078;2023-04-03T00:53:36;100266.41;;;5.95;68.66
77192;BME280;66172;48.526;8.078;2023-04-03T00:56:06;100261.25;;;5.98;68.33
77192;BME280;66172;48.526;8.078;2023-04-03T00:58:42;100261.94;;;6.09;67.68
77192;BME280;66172;48.526;8.078;2023-04-03T01:01:12;100262.72;;;5.91;67.65
77192;BME280;66172;48.526;8.078;2023-04-03T01:03:40;100259.72;;;5.64;69.06
77192;BME280;66172;48.526;8.078;2023-04-03T01:06:06;100265.44;;;5.57;69.11
77192;BME280;66172;48.526;8.078;2023-04-03T01:08:32;100269.00;;;5.52;69.62
77192;BME280;66172;48.526;8.078;2023-04-03T01:10:59;100263.31;;;5.54;69.75
77192;BME280;66172;48.526;8.078;2023-04-03T01:13:28;100268.13;;;5.57;69.54
77192;BME280;66172;48.526;8.078;2023-04-03T01:15:55;100266.59;;;5.51;69.49
77192;BME280;66172;48.526;8.078;2023-04-03T01:18:23;100268.56;;;5.69;69.46
77192;BME280;66172;48.526;8.078;2023-04-03T01:23:32;100268.97;;;5.81;68.93
77192;BME280;66172;48.526;8.078;2023-04-03T01:26:02;100269.47;;;5.88;68.90
77192;BME280;66172;48.526;8.078;2023-04-03T01:28:31;100273.19;;;5.92;68.71
77192;BME280;66172;48.526;8.078;2023-04-03T01:31:15;100272.47;;;5.87;69.35
77192;BME280;66172;48.526;8.078;2023-04-03T01:33:43;100266.41;;;5.95;69.43
77192;BME280;66172;48.526;8.078;2023-04-03T01:36:14;100275.63;;;5.94;69.89
77192;BME280;66172;48.526;8.078;2023-04-03T01:38:41;100267.88;;;5.87;69.56
77192;BME280;66172;48.526;8.078;2023-04-03T01:41:07;100270.56;;;5.87;70.32
77192;BME280;66172;48.526;8.078;2023-04-03T01:43:33;100268.66;;;5.88;70.12
77192;BME280;66172;48.526;8.078;2023-04-03T01:45:58;100270.25;;;5.89;69.37
77192;BME280;66172;48.526;8.078;2023-04-03T01:48:24;100276.44;;;5.94;69.28
77192;BME280;66172;48.526;8.078;2023-04-03T01:50:50;100277.56;;;5.88;69.84
77192;BME280;66172;48.526;8.078;2023-04-03T01:53:16;100277.28;;;5.85;69.93
77192;BME280;66172;48.526;8.078;2023-04-03T01:55:42;100277.59;;;5.83;70.44
77192;BME280;66172;48.526;8.078;2023-04-03T01:58:08;100266.34;;;5.76;70.57
77192;BME280;66172;48.526;8.078;2023-04-03T02:00:34;100261.44;;;5.78;69.85
77192;BME280;66172;48.526;8.078;2023-04-03T02:03:00;100269.28;;;5.80;70.08
77192;BME280;66172;48.526;8.078;2023-04-03T02:05:26;100265.06;;;5.69;70.44
77192;BME280;66172;48.526;8.078;2023-04-03T02:07:52;100266.97;;;5.68;70.61
77192;BME280;66172;48.526;8.078;2023-04-03T02:10:17;100264.25;;;5.68;71.12
77192;BME280;66172;48.526;8.078;2023-04-03T02:12:43;100258.84;;;5.68;71.22
77192;BME280;66172;48.526;8.078;2023-04-03T02:15:09;100266.69;;;5.70;71.00
77192;BME280;66172;48.526;8.078;2023-04-03T02:17:36;100263.97;;;5.70;71.53
77192;BME280;66172;48.526;8.078;2023-04-03T02:20:02;100253.69;;;5.72;71.76
77192;BME280;66172;48.526;8.078;2023-04-03T02:22:28;100261.91;;;5.62;71.74
77192;BME280;66172;48.526;8.078;2023-04-03T02:24:54;100254.72;;;5.52;72.35
77192;BME280;66172;48.526;8.078;2023-04-03T02:27:20;100255.00;;;5.50;71.91
77192;BME280;66172;48.526;8.078;2023-04-03T02:29:46;100257.69;;;5.50;71.60
77192;BME280;66172;48.526;8.078;2023-04-03T02:32:12;100259.06;;;5.48;72.59
77192;BME280;66172;48.526;8.078;2023-04-03T02:34:38;100262.84;;;5.47;74.07
77192;BME280;66172;48.526;8.078;2023-04-03T02:37:04;100254.25;;;5.45;74.32
77192;BME280;66172;48.526;8.078;2023-04-03T02:39:30;100254.28;;;5.40;73.62
77192;BME280;66172;48.526;8.078;2023-04-03T02:41:55;100251.09;;;5.38;72.58
77192;BME280;66172;48.526;8.078;2023-04-03T02:44:21;100256.06;;;5.49;71.44
77192;BME280;66172;48.526;8.078;2023-04-03T02:46:49;100263.13;;;5.45;72.55
77192;BME280;66172;48.526;8.078;2023-04-03T02:49:15;100264.75;;;5.46;72.91
77192;BME280;66172;48.526;8.078;2023-04-03T02:51:41;100256.97;;;5.40;73.02
77192;BME280;66172;48.526;8.078;2023-04-03T02:54:07;100252.09;;;5.42;72.81
77192;BME280;66172;48.526;8.078;2023-04-03T02:56:33;100256.97;;;5.40;73.55
77192;BME280;66172;48.526;8.078;2023-04-03T02:58:59;100252.97;;;5.37;73.93
77192;BME280;66172;48.526;8.078;2023-04-03T03:01:25;100269.16;;;5.37;73.19
77192;BME280;66172;48.526;8.078;2023-04-03T03:03:54;100260.19;;;5.42;73.19
77192;BME280;66172;48.526;8.078;2023-04-03T03:06:19;100272.13;;;5.36;74.33
77192;BME280;66172;48.526;8.078;2023-04-03T03:08:45;100261.63;;;5.34;73.66
77192;BME280;66172;48.526;8.078;2023-04-03T03:11:12;100255.38;;;5.39;72.85
77192;BME280;66172;48.526;8.078;2023-04-03T03:13:38;100260.81;;;5.34;72.64
77192;BME280;66172;48.526;8.078;2023-04-03T03:16:04;100258.41;;;5.32;72.10
77192;BME280;66172;48.526;8.078;2023-04-03T03:18:30;100270.22;;;5.36;72.38
77192;BME280;66172;48.526;8.078;2023-04-03T03:20:57;100267.31;;;5.28;73.08
77192;BME280;66172;48.526;8.078;2023-04-03T03:23:25;100257.03;;;5.35;72.59
77192;BME280;66172;48.526;8.078;2023-04-03T03:26:10;100255.44;;;5.34;72.47
77192;BME280;66172;48.526;8.078;2023-04-03T03:28:38;100265.97;;;5.30;72.30
77192;BME280;66172;48.526;8.078;2023-04-03T03:31:05;100276.22;;;5.28;72.18
77192;BME280;66172;48.526;8.078;2023-04-03T03:33:31;100267.06;;;5.29;72.42
77192;BME280;66172;48.526;8.078;2023-04-03T03:35:57;100269.47;;;4.97;73.89
77192;BME280;66172;48.526;8.078;2023-04-03T03:38:23;100265.97;;;4.58;75.19
77192;BME280;66172;48.526;8.078;2023-04-03T03:40:50;100257.53;;;4.69;75.05
77192;BME280;66172;48.526;8.078;2023-04-03T03:43:17;100258.09;;;4.71;75.39
77192;BME280;66172;48.526;8.078;2023-04-03T03:45:44;100256.22;;;4.67;75.48
77192;BME280;66172;48.526;8.078;2023-04-03T03:48:11;100258.66;;;4.63;75.18
77192;BME280;66172;48.526;8.078;2023-04-03T03:50:37;100262.25;;;4.53;74.71
77192;BME280;66172;48.526;8.078;2023-04-03T03:53:03;100259.50;;;4.59;74.94
77192;BME280;66172;48.526;8.078;2023-04-03T03:55:29;100269.53;;;4.48;74.63
77192;BME280;66172;48.526;8.078;2023-04-03T03:57:55;100277.09;;;4.41;74.81
77192;BME280;66172;48.526;8.078;2023-04-03T04:00:20;100275.41;;;4.55;74.80
77192;BME280;66172;48.526;8.078;2023-04-03T04:02:46;100270.84;;;4.50;74.45
77192;BME280;66172;48.526;8.078;2023-04-03T04:05:12;100268.59;;;4.19;75.56
77192;BME280;66172;48.526;8.078;2023-04-03T04:07:38;100270.59;;;3.93;76.25
77192;BME280;66172;48.526;8.078;2023-04-03T04:10:04;100278.47;;;3.69;78.00
77192;BME280;66172;48.526;8.078;2023-04-03T04:12:30;100274.97;;;3.59;78.50
77192;BME280;66172;48.526;8.078;2023-04-03T04:14:56;100283.81;;;3.59;78.59
77192;BME280;66172;48.526;8.078;2023-04-03T04:17:22;100279.75;;;3.82;76.87
77192;BME280;66172;48.526;8.078;2023-04-03T04:19:48;100282.16;;;3.93;75.90
77192;BME280;66172;48.526;8.078;2023-04-03T04:22:14;100284.84;;;3.93;75.51
77192;BME280;66172;48.526;8.078;2023-04-03T04:24:40;100276.44;;;4.05;74.84
77192;BME280;66172;48.526;8.078;2023-04-03T04:27:06;100285.66;;;3.94;75.11
77192;BME280;66172;48.526;8.078;2023-04-03T04:29:32;100279.16;;;4.00;75.09
77192;BME280;66172;48.526;8.078;2023-04-03T04:32:02;100281.38;;;3.78;75.57
77192;BME280;66172;48.526;8.078;2023-04-03T04:34:28;100281.94;;;3.75;75.42
77192;BME280;66172;48.526;8.078;2023-04-03T04:36:55;100288.41;;;3.69;76.12
77192;BME280;66172;48.526;8.078;2023-04-03T04:39:21;100281.94;;;3.65;76.25
77192;BME280;66172;48.526;8.078;2023-04-03T04:41:47;100285.94;;;3.77;75.34
77192;BME280;66172;48.526;8.078;2023-04-03T04:44:13;100296.97;;;3.81;75.94
77192;BME280;66172;48.526;8.078;2023-04-03T04:46:38;100293.47;;;3.85;75.28
77192;BME280;66172;48.526;8.078;2023-04-03T04:49:04;100291.38;;;3.47;76.64
77192;BME280;66172;48.526;8.078;2023-04-03T04:51:31;100285.47;;;3.40;76.63
77192;BME280;66172;48.526;8.078;2023-04-03T04:53:57;100286.28;;;3.50;77.06
77192;BME280;66172;48.526;8.078;2023-04-03T04:56:22;100298.66;;;3.31;76.72
77192;BME280;66172;48.526;8.078;2023-04-03T04:58:49;100296.53;;;3.23;77.04
77192;BME280;66172;48.526;8.078;2023-04-03T05:01:15;100302.41;;;3.20;77.61
77192;BME280;66172;48.526;8.078;2023-04-03T05:03:40;100296.50;;;3.18;78.48
77192;BME280;66172;48.526;8.078;2023-04-03T05:06:06;100302.97;;;3.12;79.16
77192;BME280;66172;48.526;8.078;2023-04-03T05:08:32;100302.97;;;3.12;78.54
77192;BME280;66172;48.526;8.078;2023-04-03T05:10:58;100304.00;;;2.96;79.35
77192;BME280;66172;48.526;8.078;2023-04-03T05:13:24;100310.22;;;3.01;79.82
77192;BME280;66172;48.526;8.078;2023-04-03T05:15:50;100303.50;;;2.99;78.67
77192;BME280;66172;48.526;8.078;2023-04-03T05:18:16;100306.97;;;3.05;79.00
77192;BME280;66172;48.526;8.078;2023-04-03T05:20:42;100301.88;;;3.03;78.28
77192;BME280;66172;48.526;8.078;2023-04-03T05:23:10;100308.84;;;3.04;77.97
77192;BME280;66172;48.526;8.078;2023-04-03T05:25:39;100310.47;;;3.05;78.03
77192;BME280;66172;48.526;8.078;2023-04-03T05:28:05;100309.69;;;3.10;77.60
77192;BME280;66172;48.526;8.078;2023-04-03T05:30:31;100309.94;;;3.13;76.80
77192;BME280;66172;48.526;8.078;2023-04-03T05:32:58;100304.56;;;3.13;76.83
77192;BME280;66172;48.526;8.078;2023-04-03T05:35:24;100306.47;;;3.23;76.34
77192;BME280;66172;48.526;8.078;2023-04-03T05:37:50;100302.41;;;3.20;75.96
77192;BME280;66172;48.526;8.078;2023-04-03T05:40:17;100299.19;;;3.28;76.44
77192;BME280;66172;48.526;8.078;2023-04-03T05:42:44;100302.16;;;3.37;75.17
77192;BME280;66172;48.526;8.078;2023-04-03T05:45:12;100311.84;;;3.48;74.75
77192;BME280;66172;48.526;8.078;2023-04-03T05:47:38;100309.94;;;3.53;71.92
77192;BME280;66172;48.526;8.078;2023-04-03T05:50:04;100311.28;;;3.61;71.00
77192;BME280;66172;48.526;8.078;2023-04-03T05:52:35;100319.84;;;3.63;70.84
77192;BME280;66172;48.526;8.078;2023-04-03T05:55:02;100314.75;;;3.72;69.02
77192;BME280;66172;48.526;8.078;2023-04-03T05:57:29;100319.56;;;3.90;68.79
77192;BME280;66172;48.526;8.078;2023-04-03T05:59:54;100318.72;;;3.94;68.13
77192;BME280;66172;48.526;8.078;2023-04-03T06:02:22;100323.59;;;3.97;67.38
77192;BME280;66172;48.526;8.078;2023-04-03T06:04:49;100319.53;;;4.00;67.10
77192;BME280;66172;48.526;8.078;2023-04-03T06:07:19;100339.44;;;4.04;66.89
77192;BME280;66172;48.526;8.078;2023-04-03T06:09:47;100325.41;;;4.12;65.24
77192;BME280;66172;48.526;8.078;2023-04-03T06:12:13;100333.97;;;4.24;65.12
77192;BME280;66172;48.526;8.078;2023-04-03T06:14:39;100327.47;;;4.35;64.54
77192;BME280;66172;48.526;8.078;2023-04-03T06:17:05;100338.16;;;4.56;63.40
77192;BME280;66172;48.526;8.078;2023-04-03T06:19:31;100347.00;;;4.66;62.63
77192;BME280;66172;48.526;8.078;2023-04-03T06:21:57;100334.94;;;6.23;58.75
77192;BME280;66172;48.526;8.078;2023-04-03T06:24:23;100330.69;;;7.98;52.59
77192;BME280;66172;48.526;8.078;2023-04-03T06:26:51;100336.59;;;8.82;49.99
77192;BME280;66172;48.526;8.078;2023-04-03T06:29:18;100341.06;;;9.89;47.38
77192;BME280;66172;48.526;8.078;2023-04-03T06:31:45;100338.56;;;10.32;44.05
77192;BME280;66172;48.526;8.078;2023-04-03T06:34:12;100340.84;;;12.48;40.64
77192;BME280;66172;48.526;8.078;2023-04-03T06:36:39;100341.91;;;12.56;39.98
77192;BME280;66172;48.526;8.078;2023-04-03T06:39:05;100346.53;;;12.85;39.77
77192;BME280;66172;48.526;8.078;2023-04-03T06:41:32;100348.41;;;12.72;38.24
77192;BME280;66172;48.526;8.078;2023-04-03T06:43:58;100359.97;;;14.06;36.95
77192;BME280;66172;48.526;8.078;2023-04-03T06:46:26;100362.25;;;14.04;34.58
77192;BME280;66172;48.526;8.078;2023-04-03T06:48:52;100356.16;;;12.62;37.26
77192;BME280;66172;48.526;8.078;2023-04-03T06:51:26;100353.84;;;11.96;37.29
77192;BME280;66172;48.526;8.078;2023-04-03T06:53:54;100356.91;;;12.71;37.97
77192;BME280;66172;48.526;8.078;2023-04-03T06:56:21;100366.63;;;13.84;35.94
77192;BME280;66172;48.526;8.078;2023-04-03T06:58:48;100367.22;;;14.46;33.82
77192;BME280;66172;48.526;8.078;2023-04-03T07:01:16;100371.34;;;13.95;32.87
77192;BME280;66172;48.526;8.078;2023-04-03T07:03:42;100366.03;;;12.75;35.88
77192;BME280;66172;48.526;8.078;2023-04-03T07:06:11;100375.59;;;14.05;33.88
77192;BME280;66172;48.526;8.078;2023-04-03T07:08:37;100370.94;;;15.02;31.17
77192;BME280;66172;48.526;8.078;2023-04-03T07:11:03;100385.28;;;13.08;34.65
77192;BME280;66172;48.526;8.078;2023-04-03T07:13:29;100373.03;;;14.81;31.84
77192;BME280;66172;48.526;8.078;2023-04-03T07:15:55;100380.94;;;13.07;34.16
77192;BME280;66172;48.526;8.078;2023-04-03T07:18:22;100383.22;;;12.75;34.95
77192;BME280;66172;48.526;8.078;2023-04-03T07:20:49;100382.59;;;13.82;33.34
77192;BME280;66172;48.526;8.078;2023-04-03T07:23:15;100387.06;;;14.68;32.66
77192;BME280;66172;48.526;8.078;2023-04-03T07:25:45;100387.81;;;17.06;28.49
77192;BME280;66172;48.526;8.078;2023-04-03T07:28:12;100391.66;;;15.40;30.01
77192;BME280;66172;48.526;8.078;2023-04-03T07:30:52;100381.38;;;15.49;30.02
77192;BME280;66172;48.526;8.078;2023-04-03T07:33:20;100395.22;;;11.98;34.96
77192;BME280;66172;48.526;8.078;2023-04-03T07:35:47;100381.50;;;13.41;33.86
77192;BME280;66172;48.526;8.078;2023-04-03T07:38:13;100390.41;;;15.49;30.37
77192;BME280;66172;48.526;8.078;2023-04-03T07:40:39;100399.25;;;13.89;32.24
77192;BME280;66172;48.526;8.078;2023-04-03T07:43:05;100399.38;;;10.93;36.53
77192;BME280;66172;48.526;8.078;2023-04-03T07:45:34;100400.50;;;11.09;37.21
77192;BME280;66172;48.526;8.078;2023-04-03T07:48:00;100407.97;;;12.32;35.75
77192;BME280;66172;48.526;8.078;2023-04-03T07:50:26;100401.75;;;12.90;34.90
77192;BME280;66172;48.526;8.078;2023-04-03T07:52:52;100404.56;;;13.11;33.63
77192;BME280;66172;48.526;8.078;2023-04-03T07:55:20;100408.81;;;10.95;36.62
77192;BME280;66172;48.526;8.078;2023-04-03T07:57:46;100410.81;;;10.64;37.88
77192;BME280;66172;48.526;8.078;2023-04-03T08:00:12;100425.16;;;10.17;39.02
77192;BME280;66172;48.526;8.078;2023-04-03T08:02:39;100406.53;;;9.21;40.81
77192;BME280;66172;48.526;8.078;2023-04-03T08:05:05;100420.44;;;8.92;40.93
77192;BME280;66172;48.526;8.078;2023-04-03T08:07:31;100413.69;;;8.22;43.21
77192;BME280;66172;48.526;8.078;2023-04-03T08:09:57;100423.75;;;8.02;44.74
77192;BME280;66172;48.526;8.078;2023-04-03T08:12:23;100418.25;;;8.81;43.58
77192;BME280;66172;48.526;8.078;2023-04-03T08:14:48;100410.78;;;9.36;42.39
77192;BME280;66172;48.526;8.078;2023-04-03T08:17:15;100415.44;;;8.45;42.67
77192;BME280;66172;48.526;8.078;2023-04-03T08:19:41;100410.94;;;8.68;42.81
77192;BME280;66172;48.526;8.078;2023-04-03T08:22:07;100414.38;;;8.27;43.30
77192;BME280;66172;48.526;8.078;2023-04-03T08:24:33;100426.53;;;8.16;43.84
77192;BME280;66172;48.526;8.078;2023-04-03T08:27:00;100418.84;;;7.72;44.95
77192;BME280;66172;48.526;8.078;2023-04-03T08:29:27;100415.94;;;7.69;44.86
77192;BME280;66172;48.526;8.078;2023-04-03T08:31:53;100418.69;;;7.82;45.34
77192;BME280;66172;48.526;8.078;2023-04-03T08:34:19;100423.75;;;8.02;44.53
77192;BME280;66172;48.526;8.078;2023-04-03T08:36:45;100419.97;;;8.17;44.39
77192;BME280;66172;48.526;8.078;2023-04-03T08:39:12;100422.75;;;8.44;44.22
77192;BME280;66172;48.526;8.078;2023-04-03T08:41:40;100429.03;;;10.64;40.80
77192;BME280;66172;48.526;8.078;2023-04-03T08:46:40;100432.81;;;9.70;41.45
77192;BME280;66172;48.526;8.078;2023-04-03T08:49:19;100428.88;;;8.91;40.80
77192;BME280;66172;48.526;8.078;2023-04-03T08:51:48;100432.63;;;8.68;41.60
77192;BME280;66172;48.526;8.078;2023-04-03T08:54:28;100418.13;;;8.99;40.88
77192;BME280;66172;48.526;8.078;2023-04-03T08:56:56;100433.22;;;9.41;39.54
77192;BME280;66172;48.526;8.078;2023-04-03T08:59:29;100421.88;;;8.90;41.31
77192;BME280;66172;48.526;8.078;2023-04-03T09:01:58;100429.03;;;10.64;37.88
77192;BME280;66172;48.526;8.078;2023-04-03T09:04:31;100432.44;;;9.85;38.88
77192;BME280;66172;48.526;8.078;2023-04-03T09:07:04;100429.97;;;9.39;40.50
77192;BME280;66172;48.526;8.078;2023-04-03T09:09:36;100434.88;;;9.51;40.25
77192;BME280;66172;48.526;8.078;2023-04-03T09:12:26;100433.50;;;8.77;41.54
77192;BME280;66172;48.526;8.078;2023-04-03T09:15:15;100436.41;;;7.75;44.32
77192;BME280;66172;48.526;8.078;2023-04-03T09:20:24;100442.84;;;7.60;43.87
77192;BME280;66172;48.526;8.078;2023-04-03T09:22:53;100439.31;;;7.78;44.57
77192;BME280;66172;48.526;8.078;2023-04-03T09:25:22;100427.56;;;8.34;42.69
77192;BME280;66172;48.526;8.078;2023-04-03T09:27:49;100426.25;;;7.99;43.84
77192;BME280;66172;48.526;8.078;2023-04-03T09:30:17;100421.25;;;8.06;43.99
77192;BME280;66172;48.526;8.078;2023-04-03T09:32:46;100426.19;;;8.36;43.85
77192;BME280;66172;48.526;8.078;2023-04-03T09:40:38;100423.97;;;8.52;43.76
77192;BME280;66172;48.526;8.078;2023-04-03T09:45:44;100435.13;;;8.78;43.58
77192;BME280;66172;48.526;8.078;2023-04-03T09:53:39;100434.72;;;8.71;44.60
77192;BME280;66172;48.526;8.078;2023-04-03T09:58:46;100430.34;;;9.24;43.04
77192;BME280;66172;48.526;8.078;2023-04-03T10:01:23;100427.63;;;9.24;40.94
77192;BME280;66172;48.526;8.078;2023-04-03T10:06:43;100437.13;;;10.86;38.85
77192;BME280;66172;48.526;8.078;2023-04-03T10:09:27;100423.88;;;11.01;37.34
77192;BME280;66172;48.526;8.078;2023-04-03T10:12:12;100424.53;;;10.50;40.91
77192;BME280;66172;48.526;8.078;2023-04-03T10:17:31;100416.66;;;10.88;39.06
77192;BME280;66172;48.526;8.078;2023-04-03T10:28:47;100435.53;;;8.44;44.57
77192;BME280;66172;48.526;8.078;2023-04-03T10:31:37;100423.06;;;8.70;44.40
77192;BME280;66172;48.526;8.078;2023-04-03T10:37:01;100420.91;;;10.02;41.25
77192;BME280;66172;48.526;8.078;2023-04-03T10:39:46;100418.03;;;10.07;40.34
77192;BME280;66172;48.526;8.078;2023-04-03T10:53:05;100421.66;;;9.36;41.85
77192;BME280;66172;48.526;8.078;2023-04-03T10:55:50;100413.63;;;8.95;41.61
77192;BME280;66172;48.526;8.078;2023-04-03T10:58:32;100402.28;;;8.66;41.62
77192;BME280;66172;48.526;8.078;2023-04-03T11:01:11;100413.81;;;8.98;41.43
77192;BME280;66172;48.526;8.078;2023-04-03T11:03:42;100404.69;;;9.30;40.70
77192;BME280;66172;48.526;8.078;2023-04-03T11:06:12;100410.13;;;8.40;43.56
77192;BME280;66172;48.526;8.078;2023-04-03T11:08:57;100410.41;;;8.52;43.40
77192;BME280;66172;48.526;8.078;2023-04-03T11:11:42;100407.69;;;8.52;43.58
77192;BME280;66172;48.526;8.078;2023-04-03T11:14:14;100415.13;;;9.37;43.53
77192;BME280;66172;48.526;8.078;2023-04-03T11:16:47;100404.63;;;10.41;40.92
77192;BME280;66172;48.526;8.078;2023-04-03T11:22:10;100413.00;;;10.53;40.39
77192;BME280;66172;48.526;8.078;2023-04-03T11:24:41;100405.13;;;9.24;42.58
77192;BME280;66172;48.526;8.078;2023-04-03T11:27:16;100400.69;;;8.78;43.42
77192;BME280;66172;48.526;8.078;2023-04-03T11:29:45;100405.56;;;9.03;44.66
77192;BME280;66172;48.526;8.078;2023-04-03T11:32:27;100410.81;;;8.86;43.39
77192;BME280;66172;48.526;8.078;2023-04-03T11:35:00;100403.13;;;9.16;43.35
77192;BME280;66172;48.526;8.078;2023-04-03T11:37:45;100410.91;;;8.95;42.86
77192;BME280;66172;48.526;8.078;2023-04-03T11:40:33;100401.63;;;9.45;42.42
77192;BME280;66172;48.526;8.078;2023-04-03T11:45:35;100404.97;;;10.40;39.20
77192;BME280;66172;48.526;8.078;2023-04-03T11:50:48;100401.50;;;10.57;38.97
77192;BME280;66172;48.526;8.078;2023-04-03T11:55:52;100395.81;;;9.61;41.04
77192;BME280;66172;48.526;8.078;2023-04-03T11:58:21;100391.00;;;10.02;41.00
77192;BME280;66172;48.526;8.078;2023-04-03T12:00:51;100406.50;;;10.24;40.68
77192;BME280;66172;48.526;8.078;2023-04-03T12:05:53;100400.06;;;8.81;42.64
77192;BME280;66172;48.526;8.078;2023-04-03T12:08:26;100400.25;;;8.85;42.70
77192;BME280;66172;48.526;8.078;2023-04-03T12:16:27;100379.31;;;8.49;43.03
77192;BME280;66172;48.526;8.078;2023-04-03T12:18:54;100383.63;;;9.14;43.04
77192;BME280;66172;48.526;8.078;2023-04-03T12:24:02;100386.38;;;9.80;40.71
77192;BME280;66172;48.526;8.078;2023-04-03T12:29:22;100373.50;;;10.47;38.99
77192;BME280;66172;48.526;8.078;2023-04-03T12:32:04;100389.22;;;10.28;39.63
77192;BME280;66172;48.526;8.078;2023-04-03T12:43:29;100376.16;;;9.55;41.57
77192;BME280;66172;48.526;8.078;2023-04-03T12:48:30;100365.69;;;9.26;41.90
77192;BME280;66172;48.526;8.078;2023-04-03T12:50:58;100375.97;;;9.16;42.45
77192;BME280;66172;48.526;8.078;2023-04-03T12:53:27;100363.53;;;8.79;41.97
77192;BME280;66172;48.526;8.078;2023-04-03T12:55:57;100367.44;;;8.45;43.10
77192;BME280;66172;48.526;8.078;2023-04-03T12:58:28;100361.28;;;8.81;42.08
77192;BME280;66172;48.526;8.078;2023-04-03T13:01:23;100357.22;;;8.56;42.51
77192;BME280;66172;48.526;8.078;2023-04-03T13:03:52;100366.03;;;8.34;42.59
77192;BME280;66172;48.526;8.078;2023-04-03T13:06:22;100360.94;;;8.46;43.02
77192;BME280;66172;48.526;8.078;2023-04-03T13:08:50;100355.53;;;8.33;41.15
77192;BME280;66172;48.526;8.078;2023-04-03T13:11:17;100360.31;;;8.49;42.09
77192;BME280;66172;48.526;8.078;2023-04-03T13:14:20;100363.84;;;8.50;41.41
77192;BME280;66172;48.526;8.078;2023-04-03T13:16:55;100350.50;;;8.40;41.50
77192;BME280;66172;48.526;8.078;2023-04-03T13:19:26;100356.84;;;8.98;42.12
77192;BME280;66172;48.526;8.078;2023-04-03T13:22:20;100354.84;;;9.04;41.08
77192;BME280;66172;48.526;8.078;2023-04-03T13:24:50;100356.78;;;8.90;41.27
77192;BME280;66172;48.526;8.078;2023-04-03T13:27:17;100349.59;;;8.94;42.17
77192;BME280;66172;48.526;8.078;2023-04-03T13:29:50;100354.22;;;8.58;42.53
77192;BME280;66172;48.526;8.078;2023-04-03T13:32:21;100356.97;;;8.25;41.81
77192;BME280;66172;48.526;8.078;2023-04-03T13:34:48;100361.75;;;8.33;41.56
77192;BME280;66172;48.526;8.078;2023-04-03T13:40:16;100360.63;;;8.62;41.45
77192;BME280;66172;48.526;8.078;2023-04-03T13:42:42;100359.19;;;8.78;40.83
77192;BME280;66172;48.526;8.078;2023-04-03T13:45:18;100354.56;;;8.24;42.04
77192;BME280;66172;48.526;8.078;2023-04-03T13:47:47;100347.03;;;8.21;41.80
77192;BME280;66172;48.526;8.078;2023-04-03T13:50:18;100352.28;;;8.31;42.49
77192;BME280;66172;48.526;8.078;2023-04-03T13:52:49;100345.34;;;8.11;42.88
77192;BME280;66172;48.526;8.078;2023-04-03T13:55:27;100336.38;;;7.97;42.95
77192;BME280;66172;48.526;8.078;2023-04-03T14:00:36;100328.28;;;8.24;43.44
77192;BME280;66172;48.526;8.078;2023-04-03T14:03:16;100346.50;;;8.51;43.58
77192;BME280;66172;48.526;8.078;2023-04-03T14:05:44;100347.78;;;8.53;41.70
77192;BME280;66172;48.526;8.078;2023-04-03T14:08:11;100345.28;;;8.57;40.11
77192;BME280;66172;48.526;8.078;2023-04-03T14:10:37;100341.13;;;8.60;40.98
77192;BME280;66172;48.526;8.078;2023-04-03T14:13:03;100340.25;;;8.23;41.14
77192;BME280;66172;48.526;8.078;2023-04-03T14:15:31;100332.31;;;8.68;41.12
77192;BME280;66172;48.526;8.078;2023-04-03T14:17:58;100335.75;;;8.95;40.91
77192;BME280;66172;48.526;8.078;2023-04-03T14:20:26;100333.91;;;8.55;42.19
77192;BME280;66172;48.526;8.078;2023-04-03T14:22:52;100342.56;;;8.43;43.51
77192;BME280;66172;48.526;8.078;2023-04-03T14:25:20;100328.47;;;8.14;43.88
77192;BME280;66172;48.526;8.078;2023-04-03T14:27:48;100342.16;;;7.63;44.91
77192;BME280;66172;48.526;8.078;2023-04-03T14:30:23;100346.81;;;8.03;45.50
77192;BME280;66172;48.526;8.078;2023-04-03T14:32:50;100340.06;;;8.33;44.22
77192;BME280;66172;48.526;8.078;2023-04-03T14:35:16;100347.03;;;8.21;43.12
77192;BME280;66172;48.526;8.078;2023-04-03T14:37:43;100335.44;;;8.47;43.45
77192;BME280;66172;48.526;8.078;2023-04-03T14:40:13;100334.91;;;8.59;42.55